createdAt,value
2017-12-15T00:02:35.499Z,17.10
2017-12-15T00:07:37.101Z,20.40
2017-12-15T00:12:39.354Z,17.43
2017-12-15T00:17:40.955Z,22.07
2017-12-15T00:22:43.234Z,27.13
2017-12-15T00:27:45.518Z,22.80
2017-12-15T00:32:47.785Z,19.27
2017-12-15T00:37:49.316Z,12.20
2017-12-15T00:42:50.829Z,14.90
2017-12-15T00:47:52.325Z,19.83
2017-12-15T00:52:53.990Z,13.53
2017-12-15T00:57:55.655Z,20.87
2017-12-15T01:02:57.959Z,17.87
2017-12-15T01:07:59.473Z,12.03
2017-12-15T01:13:01.013Z,9.23
2017-12-15T01:18:02.495Z,13.17
2017-12-15T01:23:04.049Z,14.03
2017-12-15T01:28:05.685Z,19.37
2017-12-15T01:33:07.236Z,16.00
2017-12-15T01:38:09.532Z,11.10
2017-12-15T01:43:11.765Z,11.20
2017-12-15T01:48:13.280Z,15.40
2017-12-15T01:53:15.526Z,13.60
2017-12-15T01:58:17.005Z,13.00
2017-12-15T02:03:18.549Z,7.77
2017-12-15T02:08:20.063Z,8.20
2017-12-15T02:13:22.336Z,9.23
2017-12-15T02:18:23.853Z,13.53
2017-12-15T02:23:25.369Z,11.97
2017-12-15T02:28:27.050Z,8.80
2017-12-15T02:33:29.369Z,8.60
2017-12-15T02:38:30.888Z,14.63
2017-12-15T02:43:32.394Z,11.50
2017-12-15T02:48:33.926Z,10.30
2017-12-15T02:53:35.429Z,13.30
2017-12-15T02:58:36.935Z,12.50
2017-12-15T03:03:38.434Z,10.33
2017-12-15T03:08:40.693Z,9.90
2017-12-15T03:13:42.236Z,8.07
2017-12-15T03:18:43.785Z,7.70
2017-12-15T03:23:45.275Z,5.63
2017-12-15T03:28:46.819Z,10.97
2017-12-15T03:33:48.319Z,9.83
2017-12-15T03:38:49.880Z,3.90
2017-12-15T03:43:51.413Z,2.73
2017-12-15T03:48:52.932Z,3.10
2017-12-15T03:53:54.434Z,2.53
2017-12-15T03:58:56.761Z,4.10
2017-12-15T04:03:58.283Z,2.37
2017-12-15T04:09:00.521Z,1.87
2017-12-15T04:14:02.064Z,2.03
2017-12-15T04:19:03.537Z,3.20
2017-12-15T04:24:05.045Z,6.23
2017-12-15T04:29:06.601Z,2.70
2017-12-15T04:34:08.135Z,10.77
2017-12-15T04:39:09.669Z,3.70
2017-12-15T04:44:11.965Z,1.63
2017-12-15T04:49:14.205Z,1.63
2017-12-15T04:54:15.800Z,3.60
2017-12-15T04:59:18.073Z,2.87
2017-12-15T05:04:20.303Z,3.40
2017-12-15T05:09:21.812Z,1.73
2017-12-15T05:14:23.304Z,2.03
2017-12-15T05:19:24.944Z,2.10
2017-12-15T05:24:26.534Z,4.90
2017-12-15T05:29:28.050Z,3.33
2017-12-15T05:34:29.524Z,5.77
2017-12-15T05:39:31.151Z,3.87
2017-12-15T05:44:33.478Z,8.03
2017-12-15T05:49:35.673Z,6.13
2017-12-15T05:54:37.185Z,5.93
2017-12-15T05:59:39.414Z,6.90
2017-12-15T06:04:40.931Z,7.80
2017-12-15T06:09:42.421Z,2.33
2017-12-15T06:14:43.953Z,4.60
2017-12-15T06:19:45.488Z,2.57
2017-12-15T06:24:47.074Z,4.87
2017-12-15T06:29:48.621Z,4.03
2017-12-15T06:34:50.113Z,3.73
2017-12-15T06:39:51.709Z,2.40
2017-12-15T06:44:53.969Z,4.20
2017-12-15T06:49:55.472Z,3.23
2017-12-15T06:54:57.795Z,6.17
2017-12-15T06:59:59.320Z,7.70
2017-12-15T07:05:01.512Z,6.40
2017-12-15T07:10:03.769Z,11.23
2017-12-15T07:15:05.382Z,10.73
2017-12-15T07:20:06.926Z,14.50
2017-12-15T07:25:09.214Z,7.37
2017-12-15T07:30:11.494Z,7.70
2017-12-15T07:35:13.791Z,16.50
2017-12-15T07:40:16.046Z,10.33
2017-12-15T07:45:17.613Z,8.37
2017-12-15T07:50:19.128Z,9.87
2017-12-15T07:55:20.636Z,14.20
2017-12-15T08:00:22.148Z,10.80
2017-12-15T08:05:23.641Z,7.17
2017-12-15T08:10:25.164Z,10.47
2017-12-15T08:15:27.381Z,4.80
2017-12-15T08:20:28.884Z,6.30
2017-12-15T08:25:30.421Z,8.37
2017-12-15T08:30:31.905Z,8.73
2017-12-15T08:35:33.630Z,4.40
2017-12-15T08:40:35.925Z,4.80
2017-12-15T08:45:37.433Z,5.20
2017-12-15T08:50:38.913Z,10.27
2017-12-15T08:55:40.441Z,7.60
2017-12-15T09:00:42.217Z,7.53
2017-12-15T09:05:43.737Z,4.50
2017-12-15T09:10:45.282Z,7.63
2017-12-15T09:15:47.025Z,6.93
2017-12-15T09:20:48.601Z,5.47
2017-12-15T09:25:50.081Z,3.97
2017-12-15T09:30:51.631Z,3.93
2017-12-15T09:35:53.264Z,8.20
2017-12-15T09:40:55.525Z,4.27
2017-12-15T09:45:57.083Z,5.43
2017-12-15T09:50:58.613Z,3.27
2017-12-15T09:56:00.099Z,9.50
2017-12-15T10:01:01.621Z,4.03
2017-12-15T10:06:03.884Z,2.80
2017-12-15T10:11:05.521Z,3.40
2017-12-15T10:16:07.058Z,4.83
2017-12-15T10:21:08.579Z,4.53
2017-12-15T10:26:10.095Z,8.10
2017-12-15T10:31:11.725Z,5.17
2017-12-15T10:36:13.237Z,6.03
2017-12-15T10:41:14.788Z,5.23
2017-12-15T10:46:17.039Z,7.23
2017-12-15T10:51:18.572Z,7.07
2017-12-15T10:56:20.069Z,13.70
2017-12-15T11:01:21.781Z,11.00
2017-12-15T11:06:24.042Z,12.93
2017-12-15T11:11:25.575Z,10.27
2017-12-15T11:16:27.088Z,11.93
2017-12-15T11:21:29.340Z,14.80
2017-12-15T11:26:30.910Z,15.33
2017-12-15T11:31:32.545Z,14.20
2017-12-15T11:36:34.080Z,14.73
2017-12-15T11:41:36.330Z,12.23
2017-12-15T11:46:37.861Z,17.03
2017-12-15T11:51:39.367Z,14.70
2017-12-15T11:56:40.822Z,12.80
2017-12-15T12:01:42.321Z,14.30
2017-12-15T12:06:44.576Z,14.57
2017-12-15T12:11:46.049Z,15.47
2017-12-15T12:16:47.599Z,21.17
2017-12-15T12:21:49.951Z,15.60
2017-12-15T12:26:51.466Z,15.63
2017-12-15T12:31:53.001Z,18.63
2017-12-15T12:36:54.602Z,19.77
2017-12-15T12:41:56.148Z,20.20
2017-12-15T12:46:57.663Z,19.23
2017-12-15T12:51:59.201Z,21.17
2017-12-15T12:57:00.802Z,24.07
2017-12-15T13:02:03.010Z,18.27
2017-12-15T13:07:04.765Z,23.80
2017-12-15T13:12:07.023Z,19.37
2017-12-15T13:17:08.707Z,17.87
2017-12-15T13:22:10.233Z,16.50
2017-12-15T13:27:11.765Z,18.50
2017-12-15T13:32:14.066Z,18.83
2017-12-15T13:37:15.579Z,19.10
2017-12-15T13:42:17.114Z,20.27
2017-12-15T13:47:18.606Z,13.53
2017-12-15T13:52:20.200Z,15.73
2017-12-15T13:57:21.753Z,17.37
2017-12-15T14:02:23.280Z,16.70
2017-12-15T14:07:24.780Z,14.43
2017-12-15T14:12:26.297Z,14.97
2017-12-15T14:17:27.833Z,13.03
2017-12-15T14:22:29.342Z,12.57
2017-12-15T14:27:30.869Z,12.43
2017-12-15T14:32:32.469Z,16.90
2017-12-15T14:37:34.014Z,16.50
2017-12-15T14:42:36.305Z,14.17
2017-12-15T14:47:37.853Z,9.13
2017-12-15T14:52:39.451Z,10.20
2017-12-15T14:57:41.758Z,6.37
2017-12-15T15:02:43.314Z,14.30
2017-12-15T15:07:44.821Z,5.30
2017-12-15T15:12:46.370Z,4.60
2017-12-15T15:17:47.917Z,6.60
2017-12-15T15:22:49.585Z,4.80
2017-12-15T15:27:51.153Z,5.23
2017-12-15T15:32:52.717Z,5.90
2017-12-15T15:37:55.072Z,6.80
2017-12-15T15:42:56.620Z,8.50
2017-12-15T15:47:58.149Z,11.43
2017-12-15T15:52:59.689Z,8.43
2017-12-15T15:58:01.259Z,7.73
2017-12-15T16:03:03.561Z,7.30
2017-12-15T16:08:05.120Z,8.60
2017-12-15T16:13:07.424Z,11.43
2017-12-15T16:18:08.945Z,10.47
2017-12-15T16:23:10.537Z,14.73
2017-12-15T16:28:12.846Z,17.00
2017-12-15T16:33:14.357Z,9.73
2017-12-15T16:38:16.016Z,11.53
2017-12-15T16:43:17.539Z,6.70
2017-12-15T16:48:19.857Z,7.20
2017-12-15T16:53:21.386Z,12.27
2017-12-15T16:58:23.787Z,44.33
2017-12-15T17:03:25.475Z,12.50
2017-12-15T17:08:26.972Z,11.57
2017-12-15T17:13:28.478Z,20.07
2017-12-15T17:18:30.750Z,19.47
2017-12-15T17:23:33.011Z,24.57
2017-12-15T17:28:34.717Z,13.37
2017-12-15T17:33:36.976Z,18.00
2017-12-15T17:38:38.525Z,12.50
2017-12-15T17:43:40.105Z,17.30
2017-12-15T17:48:41.600Z,13.93
2017-12-15T17:53:43.876Z,14.47
2017-12-15T17:58:45.354Z,12.63
2017-12-15T18:03:47.658Z,12.90
2017-12-15T18:08:49.192Z,13.13
2017-12-15T18:13:50.685Z,14.23
2017-12-15T18:18:52.192Z,20.83
2017-12-15T18:23:53.658Z,22.40
2017-12-15T18:28:56.016Z,23.43
2017-12-15T18:33:57.550Z,35.53
2017-12-15T18:38:59.801Z,22.10
2017-12-15T18:44:01.341Z,21.67
2017-12-15T18:49:02.894Z,30.37
2017-12-15T18:54:04.613Z,28.43
2017-12-15T18:59:06.112Z,21.80
2017-12-15T19:04:08.501Z,25.57
2017-12-15T19:09:10.750Z,19.70
2017-12-15T19:14:12.340Z,18.57
2017-12-15T19:19:13.864Z,25.10
2017-12-15T19:24:15.372Z,21.77
2017-12-15T19:29:16.903Z,63.80
2017-12-15T19:34:18.423Z,24.00
2017-12-15T19:39:20.663Z,22.03
2017-12-15T19:44:22.347Z,20.70
2017-12-15T19:49:23.919Z,21.33
2017-12-15T19:54:25.442Z,18.20
2017-12-15T19:59:26.974Z,20.70
2017-12-15T20:04:29.379Z,13.40
2017-12-15T20:09:31.742Z,17.10
2017-12-15T20:14:33.261Z,35.83
2017-12-15T20:19:35.001Z,24.13
2017-12-15T20:24:44.135Z,12.37
2017-12-15T20:29:46.553Z,17.37
2017-12-15T20:34:48.070Z,17.73
2017-12-15T20:39:49.704Z,19.70
2017-12-15T20:44:51.189Z,23.40
2017-12-15T20:49:52.702Z,17.00
2017-12-15T20:54:55.048Z,19.23
2017-12-15T20:59:56.610Z,22.10
2017-12-15T21:04:58.212Z,21.63
2017-12-15T21:09:59.785Z,21.77
2017-12-15T21:15:01.355Z,17.93
2017-12-15T21:20:03.610Z,20.27
2017-12-15T21:25:05.155Z,19.70
2017-12-15T21:30:06.674Z,21.67
2017-12-15T21:35:08.975Z,19.60
2017-12-15T21:40:11.336Z,21.37
2017-12-15T21:45:12.913Z,19.80
2017-12-15T21:50:14.427Z,21.63
2017-12-15T21:55:15.974Z,23.83
2017-12-15T22:00:17.489Z,32.17
2017-12-15T22:05:19.053Z,26.87
2017-12-15T22:10:20.563Z,25.73
2017-12-15T22:15:22.928Z,26.57
2017-12-15T22:20:24.468Z,24.37
2017-12-15T22:25:25.968Z,30.57
2017-12-15T22:30:27.494Z,26.90
2017-12-15T22:35:28.979Z,27.67
2017-12-15T22:40:30.422Z,27.37
2017-12-15T22:45:31.936Z,24.97
2017-12-15T22:50:33.432Z,25.60
2017-12-15T22:55:34.988Z,22.47
2017-12-15T23:00:37.216Z,24.93
2017-12-15T23:05:38.716Z,25.83
2017-12-15T23:10:40.204Z,24.03
2017-12-15T23:15:42.479Z,23.30
2017-12-15T23:20:44.001Z,26.17
2017-12-15T23:25:45.561Z,27.93
2017-12-15T23:30:47.105Z,24.37
2017-12-15T23:35:48.608Z,35.77
2017-12-15T23:40:50.113Z,27.63
2017-12-15T23:45:51.712Z,29.80
2017-12-15T23:50:53.217Z,32.33
2017-12-15T23:56:13.171Z,31.10
